Terminal Aerodrome Forecast
Issued by NWS Wilmington, NC

Current Version | Previous Version | Text Only | Print | Product List | Glossary On
Versions: 1 2 3 4 5 6 7 8 9 10 11 12 13 14
372
FTUS42 KILM 310520
TAFMYR
TAF
KMYR 310520Z 3106/0106 21010KT P6SM BKN150
     FM311500 20012G21KT P6SM VCTS FEW025CB SCT050
     FM312300 20015G21KT P6SM FEW050 SCT250
     FM010000 20010KT P6SM BKN250=

USA.gov is the U.S. government's official web portal to all federal, state and local government web resources and services.